Terminal Aerodrome Forecast
Issued by NWS

Home | Current Version | Previous Version | Graphics & Text | Print | Product List | Glossary On
Versions: 1 2 3 4 5 6 7 8 9 10 11 12 13 14 15 16
000
FTUS43 KOAX 252320
TAFCDR
TAF
KCDR 252320Z 2600/2624 03015G25KT 4SM -SN BR OVC021
      TEMPO 2600/2603 1SM -SN BR OVC013
     FM260300 01010KT 1SM -SN BR OVC008
     FM260900 35009KT 1/2SM FZFG OVC005
     FM261500 05004KT 4SM BR OVC015
     FM261900 01007KT P6SM OVC025=

USA.gov is the U.S. government's official web portal to all federal, state and local government web resources and services.